EGBB/BHX METAR and TAF weather

Enter ICAO airport designator
Station Type Date Time Source
EGBB METAR 2018/10/21 05:20 UTC NOAA

EGBB 210520Z 18003KT 4800 BR MIFG NSC 08/08 Q1027


Station Type Date Time Source
EGBB Decoded METAR 2018/10/21 05:20 UTC NOAA

Birmingham / Airport, United Kingdom (EGBB) 52-27N 001-44W 0M
Oct 21, 2018 - 01:20 AM EDT / 2018.10.21 0520 UTC
Wind: from the S (180 degrees) at 3 MPH (3 KT):0
Visibility: 2 mile(s):0
Weather: mist; shallow fog
Temperature: 46 F (8 C)
Dew Point: 46 F (8 C)
Relative Humidity: 100%
Pressure (altimeter): 30.33 in. Hg (1027 hPa)
ob: EGBB 210520Z 18003KT 4800 BR MIFG NSC 08/08 Q1027
cycle: 5

Station Type Date Time Source
EGBB TAF 2018/10/21 06:09 UTC NOAA

TAF EGBB 210459Z 2106/2206 23005KT 8000 NSC
TEMPO 2106/2110 3000 BR PROB30 2106/2109 0300 FG VV///
BECMG 2110/2112 CAVOK
BECMG 2112/2115 FEW012 BKN022
TEMPO 2115/2118 8000 -RA BKN012
BECMG 2118/2121 33010KT CAVOK


Example: see airport list